Juprelle, Belgium
Current Conditions -  °F | °C
As of 6:50 AM on Thursday 29 Jan 2015 (Local Time) from EBLG Reporting Station
Scattered Clouds Scattered Clouds  
Wind Chill: -4°   Ceiling: Unl
Heat Index:   Visibility: 6mi
Dew Point: -1°   Wind: 23mph
Humidity: 81%   Direction: 220°SW
Pressure: 29.35"   Gusts: NA
Location:  50.71°N, 5.53°E
Report Text: EBLG 290550Z 22020KT 9999 SCT015 02/M01 Q0994 NOSIG
Loading
Personal Weather Stations






























Interactive Weather Map New forecast layout! Learn more

10-Day Weather Forecast

Advertisements
Track Severe Weather on mobile